createdAt,value
2022-10-09T00:01:21.060Z,63.61
2022-10-09T00:06:25.600Z,63.61
2022-10-09T00:11:29.350Z,63.43
2022-10-09T00:16:32.865Z,63.68
2022-10-09T00:21:37.072Z,63.53
2022-10-09T00:26:41.238Z,63.62
2022-10-09T00:31:44.924Z,63.43
2022-10-09T00:36:48.653Z,63.48
2022-10-09T00:41:52.360Z,63.42
2022-10-09T00:46:56.169Z,63.53
2022-10-09T00:52:02.460Z,63.54
2022-10-09T00:57:06.072Z,63.58
2022-10-09T01:02:09.738Z,63.38
2022-10-09T01:07:19.181Z,63.69
2022-10-09T01:12:27.782Z,63.44
2022-10-09T01:17:36.911Z,63.76
2022-10-09T01:22:46.434Z,63.75
2022-10-09T01:27:50.204Z,63.75
2022-10-09T01:32:54.681Z,63.72
2022-10-09T01:37:59.487Z,63.69
2022-10-09T01:43:03.551Z,63.72
2022-10-09T01:48:10.291Z,63.78
2022-10-09T01:53:16.450Z,63.81
2022-10-09T01:58:22.965Z,63.70
2022-10-09T02:03:28.419Z,63.67
2022-10-09T02:08:33.776Z,63.77
2022-10-09T02:13:38.327Z,63.45
2022-10-09T02:18:45.210Z,63.85
2022-10-09T02:23:50.357Z,63.68
2022-10-09T02:28:54.318Z,63.93
2022-10-09T02:33:58.936Z,63.70
2022-10-09T02:39:02.447Z,63.58
2022-10-09T02:44:06.059Z,63.79
2022-10-09T02:49:09.551Z,63.90
2022-10-09T02:54:13.450Z,63.69
2022-10-09T03:39:25.268Z,64.10
2022-10-09T03:44:29.186Z,63.86
2022-10-09T03:49:32.806Z,63.63
2022-10-09T03:54:36.317Z,63.90
2022-10-09T03:59:39.737Z,63.88
2022-10-09T04:04:43.252Z,63.73
2022-10-09T04:09:46.759Z,63.87
2022-10-09T04:14:50.280Z,63.71
2022-10-09T04:19:53.807Z,63.98
2022-10-09T04:24:57.297Z,64.02
2022-10-09T04:30:01.383Z,63.93
2022-10-09T04:35:06.103Z,64.00
2022-10-09T04:40:10.197Z,63.93
2022-10-09T04:45:14.028Z,63.99
2022-10-09T04:50:17.647Z,64.10
2022-10-09T04:55:21.373Z,64.09
2022-10-09T05:00:25.088Z,64.45
2022-10-09T05:05:28.698Z,63.74
2022-10-09T05:10:32.835Z,63.82
2022-10-09T05:15:37.977Z,64.23
2022-10-09T05:20:41.766Z,64.11
2022-10-09T05:25:53.917Z,63.93
2022-10-09T05:30:57.530Z,64.08
2022-10-09T05:36:01.972Z,64.14
2022-10-09T05:41:06.516Z,63.89
2022-10-09T05:46:10.973Z,63.93
2022-10-09T05:51:15.897Z,64.04
2022-10-09T05:56:20.727Z,64.02
2022-10-09T06:01:25.421Z,63.85
2022-10-09T06:06:29.716Z,63.84
2022-10-09T06:11:34.657Z,63.93
2022-10-09T06:16:38.868Z,64.05
2022-10-09T06:21:42.862Z,63.97
2022-10-09T06:26:46.227Z,63.97
2022-10-09T06:31:49.848Z,63.99
2022-10-09T06:36:53.465Z,64.04
2022-10-09T06:41:56.877Z,64.05
2022-10-09T06:47:00.389Z,64.06
2022-10-09T06:52:03.933Z,64.05
2022-10-09T06:57:07.852Z,63.97
2022-10-09T07:02:11.491Z,64.04
2022-10-09T07:07:15.382Z,63.80
2022-10-09T07:12:19.301Z,63.80
2022-10-09T07:17:22.807Z,64.03
2022-10-09T07:22:27.100Z,63.79
2022-10-09T07:27:30.762Z,64.04
2022-10-09T07:32:34.167Z,64.11
2022-10-09T07:37:37.588Z,63.92
2022-10-09T07:42:41.028Z,64.11
2022-10-09T07:47:44.610Z,63.96
2022-10-09T07:52:48.422Z,63.88
2022-10-09T07:57:52.276Z,63.75
2022-10-09T08:02:56.136Z,64.02
2022-10-09T08:07:59.597Z,64.05
2022-10-09T08:13:03.219Z,64.00
2022-10-09T08:18:06.857Z,63.89
2022-10-09T08:23:10.350Z,64.00
2022-10-09T08:28:13.907Z,63.88
2022-10-09T08:33:21.332Z,63.70
2022-10-09T08:38:46.063Z,63.79
2022-10-09T08:43:52.971Z,63.79
2022-10-09T08:48:56.587Z,63.57
2022-10-09T08:54:04.616Z,63.81
2022-10-09T08:59:10.411Z,63.98
2022-10-09T09:04:34.160Z,63.54
2022-10-09T09:09:42.139Z,63.52
2022-10-09T09:14:52.356Z,63.67
2022-10-09T09:20:00.720Z,63.57
2022-10-09T09:25:14.847Z,63.71
2022-10-09T09:30:19.702Z,63.38
2022-10-09T09:35:27.717Z,63.29
2022-10-09T09:40:37.720Z,63.57
2022-10-09T09:45:43.650Z,63.07
2022-10-09T09:51:05.076Z,63.10
2022-10-09T09:56:15.674Z,63.02
2022-10-09T10:01:23.384Z,63.15
2022-10-09T10:06:29.956Z,62.91
2022-10-09T10:11:35.416Z,63.20
2022-10-09T10:16:39.345Z,63.20
2022-10-09T10:21:47.386Z,63.10
2022-10-09T10:26:55.592Z,63.22
2022-10-09T10:32:02.807Z,62.80
2022-10-09T10:37:14.608Z,63.13
2022-10-09T10:42:20.578Z,63.04
2022-10-09T10:47:27.269Z,63.33
2022-10-09T10:52:36.067Z,63.54
2022-10-09T10:57:46.827Z,63.10
2022-10-09T11:03:13.906Z,63.22
2022-10-09T11:08:30.490Z,63.51
2022-10-09T11:13:35.187Z,63.20
2022-10-09T11:18:56.966Z,63.33
2022-10-09T11:24:12.157Z,63.22
2022-10-09T11:29:18.117Z,63.43
2022-10-09T11:34:27.256Z,63.48
2022-10-09T11:39:32.564Z,63.54
2022-10-09T11:44:44.947Z,63.47
2022-10-09T11:49:57.477Z,63.18
2022-10-09T11:55:15.956Z,63.30
2022-10-09T12:00:29.822Z,63.31
2022-10-09T12:05:40.184Z,63.12
2022-10-09T12:10:47.137Z,63.13
2022-10-09T12:15:54.276Z,63.36
2022-10-09T12:20:59.077Z,63.41
2022-10-09T12:26:03.416Z,63.25
2022-10-09T12:31:13.436Z,63.39
2022-10-09T12:36:22.817Z,63.12
2022-10-09T12:41:28.356Z,63.16
2022-10-09T12:46:32.597Z,62.99
2022-10-09T12:51:36.076Z,62.61
2022-10-09T12:56:40.007Z,62.98
2022-10-09T13:01:43.885Z,62.86
2022-10-09T13:06:48.340Z,62.94
2022-10-09T13:11:54.116Z,63.10
2022-10-09T13:16:57.782Z,63.05
2022-10-09T13:22:02.336Z,62.86
2022-10-09T13:27:05.900Z,62.94
2022-10-09T13:32:11.906Z,62.97
2022-10-09T13:37:15.828Z,62.96
2022-10-09T13:42:19.622Z,62.80
2022-10-09T13:47:24.703Z,63.01
2022-10-09T13:52:28.427Z,62.82
2022-10-09T13:57:32.320Z,62.94
2022-10-09T14:02:36.347Z,62.86
2022-10-09T14:07:40.078Z,63.11
2022-10-09T14:12:43.787Z,62.53
2022-10-09T14:17:47.524Z,62.93
2022-10-09T14:22:51.645Z,63.14
2022-10-09T14:27:55.387Z,63.09
2022-10-09T14:32:59.166Z,63.06
2022-10-09T14:38:02.600Z,63.36
2022-10-09T14:43:06.099Z,63.08
2022-10-09T14:48:09.608Z,63.32
2022-10-09T14:53:12.926Z,63.25
2022-10-09T14:58:16.444Z,63.14
2022-10-09T15:03:20.057Z,63.41
2022-10-09T15:08:23.681Z,63.31
2022-10-09T15:13:27.365Z,63.49
2022-10-09T15:18:31.317Z,63.38
2022-10-09T15:23:34.831Z,63.44
2022-10-09T15:28:39.229Z,63.58
2022-10-09T15:33:42.877Z,63.45
2022-10-09T15:38:46.867Z,63.57
2022-10-09T15:43:50.727Z,63.53
2022-10-09T15:48:54.767Z,63.78
2022-10-09T15:53:58.894Z,63.46
2022-10-09T15:59:02.497Z,63.62
2022-10-09T16:04:06.352Z,63.50
2022-10-09T16:09:10.260Z,63.72
2022-10-09T16:14:14.190Z,63.60
2022-10-09T16:19:17.776Z,63.84
2022-10-09T16:24:21.366Z,63.66
2022-10-09T16:29:25.231Z,63.76
2022-10-09T16:34:28.747Z,64.00
2022-10-09T16:39:32.260Z,63.81
2022-10-09T16:44:35.878Z,63.89
2022-10-09T16:49:39.388Z,63.98
2022-10-09T16:54:42.900Z,63.94
2022-10-09T16:59:46.422Z,63.89
2022-10-09T17:04:49.927Z,63.90
2022-10-09T17:09:54.137Z,63.95
2022-10-09T17:14:57.658Z,63.95
2022-10-09T17:20:01.568Z,63.63
2022-10-09T17:25:06.165Z,63.81
2022-10-09T17:30:11.307Z,63.99
2022-10-09T17:35:14.917Z,63.97
2022-10-09T17:40:18.666Z,63.81
2022-10-09T17:45:22.156Z,63.92
2022-10-09T17:50:25.641Z,63.92
2022-10-09T17:55:29.308Z,63.88
2022-10-09T18:00:32.891Z,63.91
2022-10-09T18:05:41.382Z,64.07
2022-10-09T18:10:45.581Z,63.98
2022-10-09T18:15:49.167Z,63.79
2022-10-09T18:20:52.812Z,63.94
2022-10-09T18:25:56.410Z,63.90
2022-10-09T18:30:59.931Z,63.85
2022-10-09T18:36:04.607Z,63.79
2022-10-09T18:41:09.156Z,63.81
2022-10-09T18:46:13.197Z,63.54
2022-10-09T18:51:18.687Z,63.94
2022-10-09T18:56:22.620Z,63.95
2022-10-09T19:01:26.273Z,63.70
2022-10-09T19:06:29.946Z,63.81
2022-10-09T19:11:34.460Z,63.79
2022-10-09T19:16:38.217Z,63.82
2022-10-09T19:21:43.725Z,63.91
2022-10-09T19:26:47.287Z,63.89
2022-10-09T19:31:51.267Z,63.86
2022-10-09T19:36:54.869Z,63.88
2022-10-09T19:41:58.546Z,64.06
2022-10-09T19:47:02.176Z,64.06
2022-10-09T19:52:05.720Z,64.01
2022-10-09T19:57:09.248Z,63.86
2022-10-09T20:02:12.906Z,63.88
2022-10-09T20:07:16.328Z,63.69
2022-10-09T20:12:19.945Z,64.07
2022-10-09T20:17:23.772Z,64.00
2022-10-09T20:22:27.389Z,64.10
2022-10-09T20:27:31.106Z,63.98
2022-10-09T20:32:36.607Z,63.92
2022-10-09T20:37:40.085Z,64.02
2022-10-09T20:42:43.796Z,63.62
2022-10-09T20:47:47.420Z,64.00
2022-10-09T20:52:51.149Z,64.03
2022-10-09T20:57:55.097Z,63.93
2022-10-09T21:02:58.796Z,64.17
2022-10-09T21:08:02.287Z,64.05
2022-10-09T21:13:05.800Z,64.15
2022-10-09T21:18:09.317Z,64.13
2022-10-09T21:23:13.910Z,63.98
2022-10-09T21:28:18.073Z,64.09
2022-10-09T21:33:22.191Z,64.03
2022-10-09T21:38:25.736Z,63.89
2022-10-09T21:43:29.457Z,63.59
2022-10-09T21:48:32.876Z,63.57
2022-10-09T21:53:36.577Z,63.58
2022-10-09T21:58:41.955Z,63.20
2022-10-09T22:03:46.990Z,63.62
2022-10-09T22:08:50.506Z,63.61
2022-10-09T22:13:54.976Z,63.85
2022-10-09T22:18:58.456Z,63.75
2022-10-09T22:24:02.598Z,63.46
2022-10-09T22:29:06.097Z,63.69
2022-10-09T22:34:09.902Z,63.61
2022-10-09T22:39:13.648Z,63.50
2022-10-09T22:44:17.200Z,63.20
2022-10-09T22:49:20.769Z,63.39
2022-10-09T22:54:24.401Z,63.37
2022-10-09T22:59:28.417Z,63.40
2022-10-09T23:04:31.927Z,63.15
2022-10-09T23:09:35.446Z,63.54
2022-10-09T23:14:38.960Z,63.51
2022-10-09T23:19:42.480Z,63.62
2022-10-09T23:24:46.089Z,63.34
2022-10-09T23:29:49.806Z,63.43
2022-10-09T23:34:53.327Z,63.44
2022-10-09T23:39:56.847Z,63.34
2022-10-09T23:45:00.469Z,63.16
2022-10-09T23:50:04.386Z,63.04
2022-10-09T23:55:08.577Z,63.25
